sensor_id;sensor_type;location;lat;lon;timestamp;temperature;humidity
16829;DHT22;8531;48.078;11.968;2023-04-24T00:01:17;11.30;99.90
16829;DHT22;8531;48.078;11.968;2023-04-24T00:03:44;11.20;99.90
16829;DHT22;8531;48.078;11.968;2023-04-24T00:06:10;11.20;99.90
16829;DHT22;8531;48.078;11.968;2023-04-24T00:08:36;11.10;99.90
16829;DHT22;8531;48.078;11.968;2023-04-24T00:11:02;11.10;99.90
16829;DHT22;8531;48.078;11.968;2023-04-24T00:13:27;11.10;99.90
16829;DHT22;8531;48.078;11.968;2023-04-24T00:15:56;11.10;99.90
16829;DHT22;8531;48.078;11.968;2023-04-24T00:18:22;11.10;99.90
16829;DHT22;8531;48.078;11.968;2023-04-24T00:20:47;11.10;99.90
16829;DHT22;8531;48.078;11.968;2023-04-24T00:23:13;11.10;99.90
16829;DHT22;8531;48.078;11.968;2023-04-24T00:25:39;11.00;99.90
16829;DHT22;8531;48.078;11.968;2023-04-24T00:28:05;11.00;99.90
16829;DHT22;8531;48.078;11.968;2023-04-24T00:30:31;10.90;99.90
16829;DHT22;8531;48.078;11.968;2023-04-24T00:32:57;10.90;99.90
16829;DHT22;8531;48.078;11.968;2023-04-24T00:35:23;10.90;99.90
16829;DHT22;8531;48.078;11.968;2023-04-24T00:37:48;10.90;99.90
16829;DHT22;8531;48.078;11.968;2023-04-24T00:40:15;10.90;99.90
16829;DHT22;8531;48.078;11.968;2023-04-24T00:42:40;10.90;99.90
16829;DHT22;8531;48.078;11.968;2023-04-24T00:45:07;11.00;99.90
16829;DHT22;8531;48.078;11.968;2023-04-24T00:47:36;11.00;99.90
16829;DHT22;8531;48.078;11.968;2023-04-24T00:50:03;11.00;99.90
16829;DHT22;8531;48.078;11.968;2023-04-24T00:52:29;11.00;99.90
16829;DHT22;8531;48.078;11.968;2023-04-24T00:54:57;11.00;99.90
16829;DHT22;8531;48.078;11.968;2023-04-24T00:57:23;10.90;99.90
16829;DHT22;8531;48.078;11.968;2023-04-24T00:59:51;10.90;99.90
16829;DHT22;8531;48.078;11.968;2023-04-24T01:02:17;10.90;99.90
16829;DHT22;8531;48.078;11.968;2023-04-24T01:04:43;10.90;99.90
16829;DHT22;8531;48.078;11.968;2023-04-24T01:07:09;10.90;99.90
16829;DHT22;8531;48.078;11.968;2023-04-24T01:09:46;10.90;99.90
16829;DHT22;8531;48.078;11.968;2023-04-24T01:12:15;10.90;99.90
16829;DHT22;8531;48.078;11.968;2023-04-24T01:14:40;11.00;99.90
16829;DHT22;8531;48.078;11.968;2023-04-24T01:17:06;11.00;99.90
16829;DHT22;8531;48.078;11.968;2023-04-24T01:19:32;11.00;99.90
16829;DHT22;8531;48.078;11.968;2023-04-24T01:21:59;10.90;99.90
16829;DHT22;8531;48.078;11.968;2023-04-24T01:24:26;10.90;99.90
16829;DHT22;8531;48.078;11.968;2023-04-24T01:26:52;10.90;99.90
16829;DHT22;8531;48.078;11.968;2023-04-24T01:29:18;10.90;99.90
16829;DHT22;8531;48.078;11.968;2023-04-24T01:31:44;10.90;99.90
16829;DHT22;8531;48.078;11.968;2023-04-24T01:34:10;10.90;99.90
16829;DHT22;8531;48.078;11.968;2023-04-24T01:36:36;10.80;99.90
16829;DHT22;8531;48.078;11.968;2023-04-24T01:39:03;10.80;99.90
16829;DHT22;8531;48.078;11.968;2023-04-24T01:41:29;10.80;99.90
16829;DHT22;8531;48.078;11.968;2023-04-24T01:43:57;10.70;99.90
16829;DHT22;8531;48.078;11.968;2023-04-24T01:46:24;10.70;99.90
16829;DHT22;8531;48.078;11.968;2023-04-24T01:48:51;10.70;99.90
16829;DHT22;8531;48.078;11.968;2023-04-24T01:51:17;10.60;99.90
16829;DHT22;8531;48.078;11.968;2023-04-24T01:53:43;10.60;99.90
16829;DHT22;8531;48.078;11.968;2023-04-24T01:56:09;10.60;99.90
16829;DHT22;8531;48.078;11.968;2023-04-24T01:58:35;10.70;99.90
16829;DHT22;8531;48.078;11.968;2023-04-24T02:01:01;10.60;99.90
16829;DHT22;8531;48.078;11.968;2023-04-24T02:03:27;10.60;99.90
16829;DHT22;8531;48.078;11.968;2023-04-24T02:05:52;10.50;99.90
16829;DHT22;8531;48.078;11.968;2023-04-24T02:08:18;10.50;99.90
16829;DHT22;8531;48.078;11.968;2023-04-24T02:10:44;10.50;99.90
16829;DHT22;8531;48.078;11.968;2023-04-24T02:13:10;10.50;99.90
16829;DHT22;8531;48.078;11.968;2023-04-24T02:15:35;10.40;99.90
16829;DHT22;8531;48.078;11.968;2023-04-24T02:18:01;10.40;99.90
16829;DHT22;8531;48.078;11.968;2023-04-24T02:20:27;10.40;99.90
16829;DHT22;8531;48.078;11.968;2023-04-24T02:22:53;10.40;99.90
16829;DHT22;8531;48.078;11.968;2023-04-24T02:25:18;10.40;99.90
16829;DHT22;8531;48.078;11.968;2023-04-24T02:27:44;10.40;99.90
16829;DHT22;8531;48.078;11.968;2023-04-24T02:30:10;10.40;99.90
16829;DHT22;8531;48.078;11.968;2023-04-24T02:32:36;10.30;99.90
16829;DHT22;8531;48.078;11.968;2023-04-24T02:35:01;10.30;99.90
16829;DHT22;8531;48.078;11.968;2023-04-24T02:37:27;10.30;99.90
16829;DHT22;8531;48.078;11.968;2023-04-24T02:39:53;10.30;99.90
16829;DHT22;8531;48.078;11.968;2023-04-24T02:42:18;10.30;99.90
16829;DHT22;8531;48.078;11.968;2023-04-24T02:44:44;10.20;99.90
16829;DHT22;8531;48.078;11.968;2023-04-24T02:47:10;10.20;99.90
16829;DHT22;8531;48.078;11.968;2023-04-24T02:49:35;10.20;99.90
16829;DHT22;8531;48.078;11.968;2023-04-24T02:52:01;10.20;99.90
16829;DHT22;8531;48.078;11.968;2023-04-24T02:54:27;10.20;99.90
16829;DHT22;8531;48.078;11.968;2023-04-24T02:56:52;10.10;99.90
16829;DHT22;8531;48.078;11.968;2023-04-24T02:59:18;10.20;99.90
16829;DHT22;8531;48.078;11.968;2023-04-24T03:01:43;10.20;99.90
16829;DHT22;8531;48.078;11.968;2023-04-24T03:04:09;10.20;99.90
16829;DHT22;8531;48.078;11.968;2023-04-24T03:06:35;10.20;99.90
16829;DHT22;8531;48.078;11.968;2023-04-24T03:09:01;10.20;99.90
16829;DHT22;8531;48.078;11.968;2023-04-24T03:11:27;10.20;99.90
16829;DHT22;8531;48.078;11.968;2023-04-24T03:13:53;10.20;99.90
16829;DHT22;8531;48.078;11.968;2023-04-24T03:16:18;10.10;99.90
16829;DHT22;8531;48.078;11.968;2023-04-24T03:18:44;10.10;99.90
16829;DHT22;8531;48.078;11.968;2023-04-24T03:21:10;10.10;99.90
16829;DHT22;8531;48.078;11.968;2023-04-24T03:23:37;10.10;99.90
16829;DHT22;8531;48.078;11.968;2023-04-24T03:26:02;10.10;99.90
16829;DHT22;8531;48.078;11.968;2023-04-24T03:28:28;10.10;99.90
16829;DHT22;8531;48.078;11.968;2023-04-24T03:30:54;10.10;99.90
16829;DHT22;8531;48.078;11.968;2023-04-24T03:33:19;10.10;99.90
16829;DHT22;8531;48.078;11.968;2023-04-24T03:35:45;10.10;99.90
16829;DHT22;8531;48.078;11.968;2023-04-24T03:38:11;10.10;99.90
16829;DHT22;8531;48.078;11.968;2023-04-24T03:40:36;10.00;99.90
16829;DHT22;8531;48.078;11.968;2023-04-24T03:43:02;10.00;99.90
16829;DHT22;8531;48.078;11.968;2023-04-24T03:45:28;10.00;99.90
16829;DHT22;8531;48.078;11.968;2023-04-24T03:47:53;9.90;99.90
16829;DHT22;8531;48.078;11.968;2023-04-24T03:50:19;9.90;99.90
16829;DHT22;8531;48.078;11.968;2023-04-24T03:52:45;9.90;99.90
16829;DHT22;8531;48.078;11.968;2023-04-24T03:55:11;9.90;99.90
16829;DHT22;8531;48.078;11.968;2023-04-24T03:57:40;9.90;99.90
16829;DHT22;8531;48.078;11.968;2023-04-24T04:00:06;9.90;99.90
16829;DHT22;8531;48.078;11.968;2023-04-24T04:02:32;9.90;99.90
16829;DHT22;8531;48.078;11.968;2023-04-24T04:04:57;9.90;99.90
16829;DHT22;8531;48.078;11.968;2023-04-24T04:07:23;9.80;99.90
16829;DHT22;8531;48.078;11.968;2023-04-24T04:09:49;9.90;99.90
16829;DHT22;8531;48.078;11.968;2023-04-24T04:12:15;9.90;99.90
16829;DHT22;8531;48.078;11.968;2023-04-24T04:14:40;9.90;99.90
16829;DHT22;8531;48.078;11.968;2023-04-24T04:17:06;9.90;99.90
16829;DHT22;8531;48.078;11.968;2023-04-24T04:19:31;9.80;99.90
16829;DHT22;8531;48.078;11.968;2023-04-24T04:21:57;9.80;99.90
16829;DHT22;8531;48.078;11.968;2023-04-24T04:24:23;9.80;99.90
16829;DHT22;8531;48.078;11.968;2023-04-24T04:26:49;9.80;99.90
16829;DHT22;8531;48.078;11.968;2023-04-24T04:29:17;9.80;99.90
16829;DHT22;8531;48.078;11.968;2023-04-24T04:31:44;9.90;99.90
16829;DHT22;8531;48.078;11.968;2023-04-24T04:34:10;9.80;99.90
16829;DHT22;8531;48.078;11.968;2023-04-24T04:36:37;9.80;99.90
16829;DHT22;8531;48.078;11.968;2023-04-24T04:39:06;9.80;99.90
16829;DHT22;8531;48.078;11.968;2023-04-24T04:41:32;9.80;99.90
16829;DHT22;8531;48.078;11.968;2023-04-24T04:44:00;9.80;99.90
16829;DHT22;8531;48.078;11.968;2023-04-24T04:46:27;9.80;99.90
16829;DHT22;8531;48.078;11.968;2023-04-24T04:48:55;9.90;99.90
16829;DHT22;8531;48.078;11.968;2023-04-24T04:51:22;9.90;99.90
16829;DHT22;8531;48.078;11.968;2023-04-24T04:53:47;9.90;99.90
16829;DHT22;8531;48.078;11.968;2023-04-24T04:56:13;9.90;99.90
16829;DHT22;8531;48.078;11.968;2023-04-24T04:58:39;10.00;99.90
16829;DHT22;8531;48.078;11.968;2023-04-24T05:01:04;9.90;99.90
16829;DHT22;8531;48.078;11.968;2023-04-24T05:03:30;9.90;99.90
16829;DHT22;8531;48.078;11.968;2023-04-24T05:05:57;9.80;99.90
16829;DHT22;8531;48.078;11.968;2023-04-24T05:08:22;9.80;99.90
16829;DHT22;8531;48.078;11.968;2023-04-24T05:10:48;9.70;99.90
16829;DHT22;8531;48.078;11.968;2023-04-24T05:13:14;9.80;99.90
16829;DHT22;8531;48.078;11.968;2023-04-24T05:15:39;9.80;99.90
16829;DHT22;8531;48.078;11.968;2023-04-24T05:18:05;9.90;99.90
16829;DHT22;8531;48.078;11.968;2023-04-24T05:20:31;9.90;99.90
16829;DHT22;8531;48.078;11.968;2023-04-24T05:22:56;10.00;99.90
16829;DHT22;8531;48.078;11.968;2023-04-24T05:25:22;10.00;99.90
16829;DHT22;8531;48.078;11.968;2023-04-24T05:27:48;10.00;99.90
16829;DHT22;8531;48.078;11.968;2023-04-24T05:30:13;10.10;99.90
16829;DHT22;8531;48.078;11.968;2023-04-24T05:32:39;10.00;99.90
16829;DHT22;8531;48.078;11.968;2023-04-24T05:35:05;10.10;99.90
16829;DHT22;8531;48.078;11.968;2023-04-24T05:37:31;10.20;99.90
16829;DHT22;8531;48.078;11.968;2023-04-24T05:39:57;10.10;99.90
16829;DHT22;8531;48.078;11.968;2023-04-24T05:42:23;10.20;99.90
16829;DHT22;8531;48.078;11.968;2023-04-24T05:44:48;10.20;99.90
16829;DHT22;8531;48.078;11.968;2023-04-24T05:47:14;10.20;99.90
16829;DHT22;8531;48.078;11.968;2023-04-24T05:49:40;10.20;99.90
16829;DHT22;8531;48.078;11.968;2023-04-24T05:52:06;10.10;99.90
16829;DHT22;8531;48.078;11.968;2023-04-24T05:54:34;10.20;99.90
16829;DHT22;8531;48.078;11.968;2023-04-24T05:56:59;10.10;99.90
16829;DHT22;8531;48.078;11.968;2023-04-24T05:59:29;10.20;99.90
16829;DHT22;8531;48.078;11.968;2023-04-24T06:01:56;10.30;99.90
16829;DHT22;8531;48.078;11.968;2023-04-24T06:04:22;10.30;99.90
16829;DHT22;8531;48.078;11.968;2023-04-24T06:06:48;10.30;99.90
16829;DHT22;8531;48.078;11.968;2023-04-24T06:09:16;10.30;99.90
16829;DHT22;8531;48.078;11.968;2023-04-24T06:11:43;10.10;99.90
16829;DHT22;8531;48.078;11.968;2023-04-24T06:14:08;10.20;99.90
16829;DHT22;8531;48.078;11.968;2023-04-24T06:16:35;10.30;99.90
16829;DHT22;8531;48.078;11.968;2023-04-24T06:19:00;10.30;99.90
16829;DHT22;8531;48.078;11.968;2023-04-24T06:21:26;10.40;99.90
16829;DHT22;8531;48.078;11.968;2023-04-24T06:23:53;10.50;99.90
16829;DHT22;8531;48.078;11.968;2023-04-24T06:26:19;10.50;99.90
16829;DHT22;8531;48.078;11.968;2023-04-24T06:28:45;10.60;99.90
16829;DHT22;8531;48.078;11.968;2023-04-24T06:31:11;10.60;99.90
16829;DHT22;8531;48.078;11.968;2023-04-24T06:33:36;10.70;99.90
16829;DHT22;8531;48.078;11.968;2023-04-24T06:36:02;10.60;99.90
16829;DHT22;8531;48.078;11.968;2023-04-24T06:38:29;10.60;99.90
16829;DHT22;8531;48.078;11.968;2023-04-24T06:40:55;10.60;99.90
16829;DHT22;8531;48.078;11.968;2023-04-24T06:43:20;10.60;99.90
16829;DHT22;8531;48.078;11.968;2023-04-24T06:45:46;10.50;99.90
16829;DHT22;8531;48.078;11.968;2023-04-24T06:48:12;10.60;99.90
16829;DHT22;8531;48.078;11.968;2023-04-24T06:50:38;10.60;99.90
16829;DHT22;8531;48.078;11.968;2023-04-24T06:53:03;10.60;99.90
16829;DHT22;8531;48.078;11.968;2023-04-24T06:55:29;10.60;99.90
16829;DHT22;8531;48.078;11.968;2023-04-24T06:57:55;10.60;99.90
16829;DHT22;8531;48.078;11.968;2023-04-24T07:00:21;10.70;99.90
16829;DHT22;8531;48.078;11.968;2023-04-24T07:02:46;10.70;99.90
16829;DHT22;8531;48.078;11.968;2023-04-24T07:05:12;10.70;99.90
16829;DHT22;8531;48.078;11.968;2023-04-24T07:07:38;10.70;99.90
16829;DHT22;8531;48.078;11.968;2023-04-24T07:10:06;10.80;99.90
16829;DHT22;8531;48.078;11.968;2023-04-24T07:12:31;10.80;99.90
16829;DHT22;8531;48.078;11.968;2023-04-24T07:14:58;10.70;99.90
16829;DHT22;8531;48.078;11.968;2023-04-24T07:17:23;10.70;99.90
16829;DHT22;8531;48.078;11.968;2023-04-24T07:19:49;10.70;99.90
16829;DHT22;8531;48.078;11.968;2023-04-24T07:22:15;10.70;99.90
16829;DHT22;8531;48.078;11.968;2023-04-24T07:24:43;10.70;99.90
16829;DHT22;8531;48.078;11.968;2023-04-24T07:27:09;10.80;99.90
16829;DHT22;8531;48.078;11.968;2023-04-24T07:29:35;10.80;99.90
16829;DHT22;8531;48.078;11.968;2023-04-24T07:32:01;10.80;99.90
16829;DHT22;8531;48.078;11.968;2023-04-24T07:34:26;10.80;99.90
16829;DHT22;8531;48.078;11.968;2023-04-24T07:36:52;10.90;99.90
16829;DHT22;8531;48.078;11.968;2023-04-24T07:39:18;11.00;99.90
16829;DHT22;8531;48.078;11.968;2023-04-24T07:41:44;11.20;99.90
16829;DHT22;8531;48.078;11.968;2023-04-24T07:44:10;11.30;99.90
16829;DHT22;8531;48.078;11.968;2023-04-24T07:46:35;11.50;99.90
16829;DHT22;8531;48.078;11.968;2023-04-24T07:49:01;11.60;99.90
16829;DHT22;8531;48.078;11.968;2023-04-24T07:51:27;11.70;99.90
16829;DHT22;8531;48.078;11.968;2023-04-24T07:53:53;11.80;99.90
16829;DHT22;8531;48.078;11.968;2023-04-24T07:56:20;11.90;99.90
16829;DHT22;8531;48.078;11.968;2023-04-24T07:58:46;12.00;99.90
16829;DHT22;8531;48.078;11.968;2023-04-24T08:01:11;11.90;99.90
16829;DHT22;8531;48.078;11.968;2023-04-24T08:03:37;11.90;99.90
16829;DHT22;8531;48.078;11.968;2023-04-24T08:06:03;11.80;99.90
16829;DHT22;8531;48.078;11.968;2023-04-24T08:08:29;11.90;99.90
16829;DHT22;8531;48.078;11.968;2023-04-24T08:10:54;12.00;99.90
16829;DHT22;8531;48.078;11.968;2023-04-24T08:13:20;12.00;99.90
16829;DHT22;8531;48.078;11.968;2023-04-24T08:15:46;12.10;99.90
16829;DHT22;8531;48.078;11.968;2023-04-24T08:18:12;12.20;99.90
16829;DHT22;8531;48.078;11.968;2023-04-24T08:20:39;12.20;99.90
16829;DHT22;8531;48.078;11.968;2023-04-24T08:23:05;12.10;99.90
16829;DHT22;8531;48.078;11.968;2023-04-24T08:25:30;12.10;99.90
16829;DHT22;8531;48.078;11.968;2023-04-24T08:27:56;12.10;99.90
16829;DHT22;8531;48.078;11.968;2023-04-24T08:30:22;12.10;99.90
16829;DHT22;8531;48.078;11.968;2023-04-24T08:32:48;12.10;99.90
16829;DHT22;8531;48.078;11.968;2023-04-24T08:35:14;12.10;99.90
16829;DHT22;8531;48.078;11.968;2023-04-24T08:37:40;12.00;99.90
16829;DHT22;8531;48.078;11.968;2023-04-24T08:40:15;11.80;99.90
16829;DHT22;8531;48.078;11.968;2023-04-24T08:42:44;11.80;99.90
16829;DHT22;8531;48.078;11.968;2023-04-24T08:45:11;11.60;99.90
16829;DHT22;8531;48.078;11.968;2023-04-24T08:47:38;11.60;99.90
16829;DHT22;8531;48.078;11.968;2023-04-24T08:50:06;11.50;99.90
16829;DHT22;8531;48.078;11.968;2023-04-24T08:52:33;11.60;99.90
16829;DHT22;8531;48.078;11.968;2023-04-24T08:55:00;11.60;99.90
16829;DHT22;8531;48.078;11.968;2023-04-24T08:57:26;11.60;99.90
16829;DHT22;8531;48.078;11.968;2023-04-24T08:59:53;11.60;99.90
16829;DHT22;8531;48.078;11.968;2023-04-24T09:02:20;11.60;99.90
16829;DHT22;8531;48.078;11.968;2023-04-24T09:04:47;11.60;99.90
16829;DHT22;8531;48.078;11.968;2023-04-24T09:07:14;11.60;99.90
16829;DHT22;8531;48.078;11.968;2023-04-24T09:09:41;11.70;99.90
16829;DHT22;8531;48.078;11.968;2023-04-24T09:12:07;11.70;99.90
16829;DHT22;8531;48.078;11.968;2023-04-24T09:14:35;11.80;99.90
16829;DHT22;8531;48.078;11.968;2023-04-24T09:17:04;11.80;99.90
16829;DHT22;8531;48.078;11.968;2023-04-24T09:19:29;11.60;99.90
16829;DHT22;8531;48.078;11.968;2023-04-24T09:21:56;11.40;99.90
16829;DHT22;8531;48.078;11.968;2023-04-24T09:24:22;11.20;99.90
16829;DHT22;8531;48.078;11.968;2023-04-24T09:26:59;11.00;99.90
16829;DHT22;8531;48.078;11.968;2023-04-24T09:29:27;10.90;99.90
16829;DHT22;8531;48.078;11.968;2023-04-24T09:31:52;10.90;99.90
16829;DHT22;8531;48.078;11.968;2023-04-24T09:34:25;11.00;99.90
16829;DHT22;8531;48.078;11.968;2023-04-24T09:36:51;11.00;99.90
16829;DHT22;8531;48.078;11.968;2023-04-24T09:39:17;11.10;99.90
16829;DHT22;8531;48.078;11.968;2023-04-24T09:41:52;11.10;99.90
16829;DHT22;8531;48.078;11.968;2023-04-24T09:44:23;11.00;99.90
16829;DHT22;8531;48.078;11.968;2023-04-24T09:46:57;10.90;99.90
16829;DHT22;8531;48.078;11.968;2023-04-24T09:49:28;10.90;99.90
16829;DHT22;8531;48.078;11.968;2023-04-24T09:52:14;10.90;99.90
16829;DHT22;8531;48.078;11.968;2023-04-24T09:54:40;11.00;99.90
16829;DHT22;8531;48.078;11.968;2023-04-24T09:57:09;11.10;99.90
16829;DHT22;8531;48.078;11.968;2023-04-24T09:59:35;11.40;99.90
16829;DHT22;8531;48.078;11.968;2023-04-24T10:02:17;11.60;99.90
16829;DHT22;8531;48.078;11.968;2023-04-24T10:04:54;11.80;99.90
16829;DHT22;8531;48.078;11.968;2023-04-24T10:07:21;11.90;99.90
16829;DHT22;8531;48.078;11.968;2023-04-24T10:09:47;12.00;99.90
16829;DHT22;8531;48.078;11.968;2023-04-24T10:12:13;12.10;99.90
16829;DHT22;8531;48.078;11.968;2023-04-24T10:14:40;12.10;99.90
16829;DHT22;8531;48.078;11.968;2023-04-24T10:17:06;11.80;99.90
16829;DHT22;8531;48.078;11.968;2023-04-24T10:19:32;11.80;99.90
16829;DHT22;8531;48.078;11.968;2023-04-24T10:21:59;12.00;99.90
16829;DHT22;8531;48.078;11.968;2023-04-24T10:24:26;12.20;99.90
16829;DHT22;8531;48.078;11.968;2023-04-24T10:26:54;12.20;99.90
16829;DHT22;8531;48.078;11.968;2023-04-24T10:29:20;12.30;99.90
16829;DHT22;8531;48.078;11.968;2023-04-24T10:31:46;12.30;99.90
16829;DHT22;8531;48.078;11.968;2023-04-24T10:34:15;12.70;99.90
16829;DHT22;8531;48.078;11.968;2023-04-24T10:36:47;13.00;99.90
16829;DHT22;8531;48.078;11.968;2023-04-24T10:39:14;13.20;99.90
16829;DHT22;8531;48.078;11.968;2023-04-24T10:41:43;13.20;99.90
16829;DHT22;8531;48.078;11.968;2023-04-24T10:44:13;13.40;99.90
16829;DHT22;8531;48.078;11.968;2023-04-24T10:46:43;13.40;99.90
16829;DHT22;8531;48.078;11.968;2023-04-24T10:49:09;13.10;99.90
16829;DHT22;8531;48.078;11.968;2023-04-24T10:51:51;13.00;99.90
16829;DHT22;8531;48.078;11.968;2023-04-24T10:56:47;13.30;99.90
16829;DHT22;8531;48.078;11.968;2023-04-24T10:59:25;13.40;99.90
16829;DHT22;8531;48.078;11.968;2023-04-24T11:01:54;13.60;99.90
16829;DHT22;8531;48.078;11.968;2023-04-24T11:04:30;13.50;99.90
16829;DHT22;8531;48.078;11.968;2023-04-24T11:06:57;13.20;99.90
16829;DHT22;8531;48.078;11.968;2023-04-24T11:09:22;13.20;99.90
16829;DHT22;8531;48.078;11.968;2023-04-24T11:12:06;13.20;99.90
16829;DHT22;8531;48.078;11.968;2023-04-24T11:17:38;13.00;99.90
16829;DHT22;8531;48.078;11.968;2023-04-24T11:20:06;12.90;99.90
16829;DHT22;8531;48.078;11.968;2023-04-24T11:22:34;13.00;99.90
16829;DHT22;8531;48.078;11.968;2023-04-24T11:25:03;13.00;99.90
16829;DHT22;8531;48.078;11.968;2023-04-24T11:27:41;12.90;99.90
16829;DHT22;8531;48.078;11.968;2023-04-24T11:30:08;12.10;99.90
16829;DHT22;8531;48.078;11.968;2023-04-24T11:35:06;11.70;99.90
16829;DHT22;8531;48.078;11.968;2023-04-24T11:40:02;11.30;99.90
16829;DHT22;8531;48.078;11.968;2023-04-24T11:42:34;11.40;99.90
16829;DHT22;8531;48.078;11.968;2023-04-24T11:45:00;11.40;99.90
16829;DHT22;8531;48.078;11.968;2023-04-24T11:47:33;11.40;99.90
16829;DHT22;8531;48.078;11.968;2023-04-24T11:50:00;11.70;99.90
16829;DHT22;8531;48.078;11.968;2023-04-24T11:52:27;11.80;99.90
16829;DHT22;8531;48.078;11.968;2023-04-24T11:54:52;11.90;99.90
16829;DHT22;8531;48.078;11.968;2023-04-24T11:57:24;12.20;99.90
16829;DHT22;8531;48.078;11.968;2023-04-24T11:59:51;12.40;99.90
16829;DHT22;8531;48.078;11.968;2023-04-24T12:02:23;12.70;99.90
16829;DHT22;8531;48.078;11.968;2023-04-24T12:04:50;12.80;99.90
16829;DHT22;8531;48.078;11.968;2023-04-24T12:07:16;13.00;99.90
16829;DHT22;8531;48.078;11.968;2023-04-24T12:09:48;12.90;99.90
16829;DHT22;8531;48.078;11.968;2023-04-24T12:12:16;12.70;99.90
16829;DHT22;8531;48.078;11.968;2023-04-24T12:14:56;12.70;99.90
16829;DHT22;8531;48.078;11.968;2023-04-24T12:17:33;12.60;99.90
16829;DHT22;8531;48.078;11.968;2023-04-24T12:20:07;12.80;99.90
16829;DHT22;8531;48.078;11.968;2023-04-24T12:22:53;13.30;99.90
16829;DHT22;8531;48.078;11.968;2023-04-24T12:25:21;13.30;99.90
16829;DHT22;8531;48.078;11.968;2023-04-24T12:27:53;13.20;99.90
16829;DHT22;8531;48.078;11.968;2023-04-24T12:30:19;13.10;99.90
16829;DHT22;8531;48.078;11.968;2023-04-24T12:32:47;13.00;99.90
16829;DHT22;8531;48.078;11.968;2023-04-24T12:35:20;12.80;99.90
16829;DHT22;8531;48.078;11.968;2023-04-24T12:37:49;12.70;99.90
16829;DHT22;8531;48.078;11.968;2023-04-24T12:40:15;12.40;99.90
16829;DHT22;8531;48.078;11.968;2023-04-24T12:42:49;12.30;99.90
16829;DHT22;8531;48.078;11.968;2023-04-24T12:45:16;12.30;99.90
16829;DHT22;8531;48.078;11.968;2023-04-24T12:47:42;12.20;99.90
16829;DHT22;8531;48.078;11.968;2023-04-24T12:50:10;12.10;99.90
16829;DHT22;8531;48.078;11.968;2023-04-24T12:52:36;11.90;99.90
16829;DHT22;8531;48.078;11.968;2023-04-24T12:55:03;11.70;99.90
16829;DHT22;8531;48.078;11.968;2023-04-24T12:57:30;11.70;99.90
16829;DHT22;8531;48.078;11.968;2023-04-24T12:59:57;11.70;99.90
16829;DHT22;8531;48.078;11.968;2023-04-24T13:02:24;11.80;99.90
16829;DHT22;8531;48.078;11.968;2023-04-24T13:04:50;11.80;99.90
16829;DHT22;8531;48.078;11.968;2023-04-24T13:07:17;11.90;99.90
16829;DHT22;8531;48.078;11.968;2023-04-24T13:09:43;12.00;99.90
16829;DHT22;8531;48.078;11.968;2023-04-24T13:12:10;12.10;99.90
16829;DHT22;8531;48.078;11.968;2023-04-24T13:14:37;12.10;99.90
16829;DHT22;8531;48.078;11.968;2023-04-24T13:17:03;12.20;99.90
16829;DHT22;8531;48.078;11.968;2023-04-24T13:19:29;12.00;99.90
16829;DHT22;8531;48.078;11.968;2023-04-24T13:21:56;11.90;99.90
16829;DHT22;8531;48.078;11.968;2023-04-24T13:24:25;11.70;99.90
16829;DHT22;8531;48.078;11.968;2023-04-24T13:26:52;11.40;99.90
16829;DHT22;8531;48.078;11.968;2023-04-24T13:29:18;11.40;99.90
16829;DHT22;8531;48.078;11.968;2023-04-24T13:31:46;11.30;99.90
16829;DHT22;8531;48.078;11.968;2023-04-24T13:34:13;11.40;99.90
16829;DHT22;8531;48.078;11.968;2023-04-24T13:36:38;11.50;99.90
16829;DHT22;8531;48.078;11.968;2023-04-24T13:39:05;11.60;99.90
16829;DHT22;8531;48.078;11.968;2023-04-24T13:41:32;11.60;99.90
16829;DHT22;8531;48.078;11.968;2023-04-24T13:43:58;11.80;99.90
16829;DHT22;8531;48.078;11.968;2023-04-24T13:46:24;11.80;99.90
16829;DHT22;8531;48.078;11.968;2023-04-24T13:48:50;11.80;99.90
16829;DHT22;8531;48.078;11.968;2023-04-24T13:51:16;11.80;99.90
16829;DHT22;8531;48.078;11.968;2023-04-24T13:53:42;11.70;99.90
16829;DHT22;8531;48.078;11.968;2023-04-24T13:56:07;11.70;99.90
16829;DHT22;8531;48.078;11.968;2023-04-24T13:58:34;11.80;99.90
16829;DHT22;8531;48.078;11.968;2023-04-24T14:01:02;11.90;99.90
16829;DHT22;8531;48.078;11.968;2023-04-24T14:03:28;11.90;99.90
16829;DHT22;8531;48.078;11.968;2023-04-24T14:05:54;12.10;99.90
16829;DHT22;8531;48.078;11.968;2023-04-24T14:08:20;12.10;99.90
16829;DHT22;8531;48.078;11.968;2023-04-24T14:10:46;12.10;99.90
16829;DHT22;8531;48.078;11.968;2023-04-24T14:13:12;12.10;99.90
16829;DHT22;8531;48.078;11.968;2023-04-24T14:15:37;12.10;99.90
16829;DHT22;8531;48.078;11.968;2023-04-24T14:18:03;12.10;99.90
16829;DHT22;8531;48.078;11.968;2023-04-24T14:20:29;12.00;99.90
16829;DHT22;8531;48.078;11.968;2023-04-24T14:22:55;11.90;99.90
16829;DHT22;8531;48.078;11.968;2023-04-24T14:25:23;12.00;99.90
16829;DHT22;8531;48.078;11.968;2023-04-24T14:27:49;11.90;99.90
16829;DHT22;8531;48.078;11.968;2023-04-24T14:30:15;11.90;99.90
16829;DHT22;8531;48.078;11.968;2023-04-24T14:32:41;11.90;99.90
16829;DHT22;8531;48.078;11.968;2023-04-24T14:35:07;11.90;99.90
16829;DHT22;8531;48.078;11.968;2023-04-24T14:37:33;11.80;99.90
16829;DHT22;8531;48.078;11.968;2023-04-24T14:39:59;11.70;99.90
16829;DHT22;8531;48.078;11.968;2023-04-24T14:42:24;11.80;99.90
16829;DHT22;8531;48.078;11.968;2023-04-24T14:44:51;11.80;99.90
16829;DHT22;8531;48.078;11.968;2023-04-24T14:47:16;11.80;99.90
16829;DHT22;8531;48.078;11.968;2023-04-24T14:49:47;11.90;99.90
16829;DHT22;8531;48.078;11.968;2023-04-24T14:52:13;12.00;99.90
16829;DHT22;8531;48.078;11.968;2023-04-24T14:54:39;12.00;99.90
16829;DHT22;8531;48.078;11.968;2023-04-24T14:57:04;12.00;99.90
16829;DHT22;8531;48.078;11.968;2023-04-24T14:59:30;12.00;99.90
16829;DHT22;8531;48.078;11.968;2023-04-24T15:01:57;12.00;99.90
16829;DHT22;8531;48.078;11.968;2023-04-24T15:04:26;12.00;99.90
16829;DHT22;8531;48.078;11.968;2023-04-24T15:06:52;12.10;99.90
16829;DHT22;8531;48.078;11.968;2023-04-24T15:09:19;12.00;99.90
16829;DHT22;8531;48.078;11.968;2023-04-24T15:11:46;12.00;99.90
16829;DHT22;8531;48.078;11.968;2023-04-24T15:14:11;12.00;99.90
16829;DHT22;8531;48.078;11.968;2023-04-24T15:16:37;12.00;99.90
16829;DHT22;8531;48.078;11.968;2023-04-24T15:19:03;12.00;99.90
16829;DHT22;8531;48.078;11.968;2023-04-24T15:21:29;12.00;99.90
16829;DHT22;8531;48.078;11.968;2023-04-24T15:23:54;12.10;99.90
16829;DHT22;8531;48.078;11.968;2023-04-24T15:26:23;12.10;99.90
16829;DHT22;8531;48.078;11.968;2023-04-24T15:28:49;12.10;99.90
16829;DHT22;8531;48.078;11.968;2023-04-24T15:31:14;12.10;99.90
16829;DHT22;8531;48.078;11.968;2023-04-24T15:33:40;12.10;99.90
16829;DHT22;8531;48.078;11.968;2023-04-24T15:36:06;12.10;99.90
16829;DHT22;8531;48.078;11.968;2023-04-24T15:38:32;12.20;99.90
16829;DHT22;8531;48.078;11.968;2023-04-24T15:40:58;12.30;99.90